Sullivan, New Hampshire
Current Conditions -  °F | °C
As of 4:15 AM on Monday 24 Nov 2014 (Local Time) from KEEN Reporting Station
Broken Clouds Broken Clouds  
Wind Chill: 36°   Ceiling: 5000
Heat Index: 36°   Visibility: 7mi
Dew Point: 34°   Wind: 3mph
Humidity: 93%   Direction: 360°N
Pressure: 29.92"   Gusts: NA
Location:  43.01°N, 72.22°W
Report Text: KEEN 240915Z AUTO 36003KT 7SM FEW037 SCT044 BKN050 02/01 A2992 RMK AO1 P0002
Loading
Personal Weather Stations






























Interactive Weather Map New forecast layout! Learn more

10-Day Weather Forecast

Advertisements
Track Severe Weather on mobile